Weather at Balıkesir Merkez Airport

Public forecast

Using degrees Celsius for public forecast. Weather courtesy of forecast.io.

Current aviation weather report (METAR) for Balıkesir Merkez Airport

Retrieved 2022/01/27 04:50 UTC (40 minutes ago):

LTBF 270450Z 00000KT 9999 BKN035 M03/M06 Q1026 NOSIG RMK RWY18 VRB02KT

Closest aviation forecast (TAF) to Balıkesir Merkez Airport

Forecast is more than 12 hours old.

Closest forecast is Mytilene International Airport, 70.3 nm (130.2 km) WSW. Retrieved 2012/09/21 03:06 UTC (9 years ago):

TAF LGMT 210200Z 2103/2115 VRB05KT 9999 SCT020 BECMG 2103/2105 30015KT PROB30 TEMPO 2103/2106 7000 RA SCT018 BKN030 BECMG 2107/2109 29012KT